Good Hope, Louisiana
Current Conditions -  °F | °C
As of 12:53 PM on Wednesday 26 Nov 2014 (Local Time) from KMSY Reporting Station
Few Clouds Few Clouds  
Wind Chill: 67°   Ceiling: Unl
Heat Index: 67°   Visibility: 10mi
Dew Point: 31°   Wind: 9mph
Humidity: 26%   Direction: 220°SW
Pressure: 30.2"   Gusts: NA
Location:  30.0285°N, 90.4077°W
Report Text: KMSY 261853Z 22008KT 10SM FEW010 19/M01 A3020 RMK AO2 SLP230 FU FEW010 T01941006
Loading
Personal Weather Stations






























Interactive Weather Map New forecast layout! Learn more

10-Day Weather Forecast

Advertisements
Track Severe Weather on mobile